ESOE/ORB METAR and TAF weather

Enter ICAO airport designator
Station Type Date Time Source
ESOE METAR 2019/10/18 06:20 UTC NOAA

ESOE 180620Z VRB03KT 0550 R01/P2000N R19/1000U FG NSC 08/07 Q1008


Station Type Date Time Source
ESOE Decoded METAR 2019/10/18 06:20 UTC NOAA

Orebro Private , Sweden (ESOE) 59-14N 015-03E
Oct 18, 2019 - 02:20 AM EDT / 2019.10.18 0620 UTC
Wind: Variable at 3 MPH (3 KT):0
Visibility: less than 1 mile:0
Weather: fog
Temperature: 46 F (8 C)
Dew Point: 44 F (7 C)
Relative Humidity: 93%
Pressure (altimeter): 29.77 in. Hg (1008 hPa)
ob: ESOE 180620Z VRB03KT 0550 R01/P2000N R19/1000U FG NSC 08/07 Q1008
cycle: 6

Station Type Date Time Source
ESOE TAF 2016/03/16 04:36 UTC NOAA

TAF TAF ESOE 160330Z 1604/1624 23005KT 9000 BR NSC PROB40 1604/1607 1200 BR

Example: see airport list